Time;durP1;ratioP1;P1;durP2;ratioP2;P2;SDS_P1;SDS_P2;PMS_P1;PMS_P2;Temp;Humidity;BMP_temperature;BMP_pressure;BME280_temperature;BME280_humidity;BME280_pressure;Samples;Min_cycle;Max_cycle;Signal;HPM_P1;HPM_P2
2022/04/04 00:04:50;;;;;;;;;;;;;;;2.65;67.31836;101796.4;;;;-84
2022/04/04 00:09:49;;;;;;;;;;;;;;;2.66;67.69043;101790.3;;;;-84
2022/04/04 00:14:55;;;;;;;;;;;;;;;2.66;68.01758;101776.9;;;;-83
2022/04/04 00:19:49;;;;;;;;;;;;;;;2.7;68.89551;101765.4;;;;-84
2022/04/04 00:24:50;;;;;;;;;;;;;;;2.71;68.60254;101755.5;;;;-84
2022/04/04 00:25:19;;;;;;;7.3;3;;;;;;;;;;;;;-83
2022/04/04 00:29:50;;;;;;;;;;;;;;;2.72;69.09668;101741.6;;;;-84
2022/04/04 00:34:49;;;;;;;;;;;;;;;2.75;69.07715;101729.3;;;;-84
2022/04/04 00:39:49;;;;;;;;;;;;;;;2.77;69.48535;101715.8;;;;-84
2022/04/04 00:44:55;;;;;;;;;;;;;;;2.81;70.36328;101711.9;;;;-84
2022/04/04 00:49:52;;;;;;;;;;;;;;;2.88;69.92773;101706;;;;-84
2022/04/04 00:54:50;;;;;;;;;;;;;;;2.93;70.51367;101694.8;;;;-82
2022/04/04 00:55:20;;;;;;;9.5;4;;;;;;;;;;;;;-83
2022/04/04 00:59:55;;;;;;;;;;;;;;;2.97;70.43457;101684.4;;;;-83
2022/04/04 01:04:49;;;;;;;;;;;;;;;3.13;72.24805;101666.4;;;;-83
2022/04/04 01:09:55;;;;;;;;;;;;;;;3.18;71.10059;101652.3;;;;-86
2022/04/04 01:14:51;;;;;;;;;;;;;;;3.22;71.93652;101642.7;;;;-83
2022/04/04 01:19:49;;;;;;;;;;;;;;;3.21;71.39941;101636.5;;;;-85
2022/04/04 01:24:51;;;;;;;;;;;;;;;3.33;72.58789;101628;;;;-84
2022/04/04 01:25:20;;;;;;;9.1;3.9;;;;;;;;;;;;;-84
2022/04/04 01:29:55;;;;;;;;;;;;;;;3.35;72.33984;101618.9;;;;-82
2022/04/04 01:34:50;;;;;;;;;;;;;;;3.4;71.92188;101605.9;;;;-84
2022/04/04 01:39:50;;;;;;;;;;;;;;;3.39;70.93848;101598.1;;;;-84
2022/04/04 01:44:55;;;;;;;;;;;;;;;3.39;71.11133;101585.6;;;;-86
2022/04/04 01:49:54;;;;;;;;;;;;;;;3.43;71.09863;101572.6;;;;-85
2022/04/04 01:54:50;;;;;;;;;;;;;;;3.46;71.08203;101559.8;;;;-83
2022/04/04 01:55:21;;;;;;;9;4.1;;;;;;;;;;;;;-85
2022/04/04 01:59:55;;;;;;;;;;;;;;;3.51;72.09473;101544.6;;;;-85
2022/04/04 02:04:49;;;;;;;;;;;;;;;3.57;71.20898;101529.7;;;;-85
2022/04/04 02:09:49;;;;;;;;;;;;;;;3.7;73.66406;101523.1;;;;-85
2022/04/04 02:14:49;;;;;;;;;;;;;;;3.77;72.94629;101505.8;;;;-81
2022/04/04 02:19:50;;;;;;;;;;;;;;;3.82;73.01953;101492.5;;;;-84
2022/04/04 02:24:50;;;;;;;;;;;;;;;3.85;72.36914;101483.2;;;;-84
2022/04/04 02:25:19;;;;;;;11.4;4.4;;;;;;;;;;;;;-85
2022/04/04 02:29:50;;;;;;;;;;;;;;;4.01;73.46582;101471.7;;;;-83
2022/04/04 02:34:49;;;;;;;;;;;;;;;4.18;73.26563;101464.4;;;;-86
2022/04/04 02:39:51;;;;;;;;;;;;;;;4.3;73.00195;101449.9;;;;-85
2022/04/04 02:44:50;;;;;;;;;;;;;;;4.38;72.63281;101431.2;;;;-85
2022/04/04 02:49:50;;;;;;;;;;;;;;;4.46;72.4502;101426.2;;;;-84
2022/04/04 02:54:51;;;;;;;;;;;;;;;4.58;71.96582;101413.7;;;;-85
2022/04/04 02:59:50;;;;;;;;;;;;;;;4.65;71.57227;101396.9;;;;-84
2022/04/04 03:04:54;;;;;;;;;;;;;;;4.68;70.89844;101384.3;;;;-85
2022/04/04 03:09:51;;;;;;;;;;;;;;;4.76;70.84668;101373.2;;;;-85
2022/04/04 03:14:49;;;;;;;;;;;;;;;4.84;70.33594;101366.8;;;;-84
2022/04/04 03:19:52;;;;;;;;;;;;;;;4.92;69.97559;101354.8;;;;-85
2022/04/04 03:24:54;;;;;;;;;;;;;;;4.95;69.6416;101350.5;;;;-85
2022/04/04 03:25:19;;;;;;;10.1;3.7;;;;;;;;;;;;;-84
2022/04/04 03:29:49;;;;;;;;;;;;;;;5.02;69.35645;101337.5;;;;-84
2022/04/04 03:34:54;;;;;;;;;;;;;;;5.07;69.11328;101334.4;;;;-86
2022/04/04 03:39:56;;;;;;;;;;;;;;;5.14;69.12305;101310.7;;;;-83
2022/04/04 03:44:58;;;;;;;;;;;;;;;5.19;68.90137;101307.4;;;;-87
2022/04/04 03:49:53;;;;;;;;;;;;;;;5.25;69.01953;101290.8;;;;-86
2022/04/04 03:54:52;;;;;;;;;;;;;;;5.32;68.89063;101272.3;;;;-82
2022/04/04 03:55:19;;;;;;;10.6;3;;;;;;;;;;;;;-85
2022/04/04 03:59:54;;;;;;;;;;;;;;;5.37;68.86523;101260.9;;;;-86
2022/04/04 04:04:52;;;;;;;;;;;;;;;5.41;68.4209;101254.6;;;;-85
2022/04/04 04:09:52;;;;;;;;;;;;;;;5.45;68.25098;101244;;;;-85
2022/04/04 04:14:52;;;;;;;;;;;;;;;5.49;68.26953;101232.4;;;;-85
2022/04/04 04:24:52;;;;;;;;;;;;;;;5.56;67.99512;101204.5;;;;-85
2022/04/04 04:25:23;;;;;;;11.1;3.3;;;;;;;;;;;;;-85
2022/04/04 04:30:03;;;;;;;;;;;;;;;5.62;68.4873;101203.6;;;;-85
2022/04/04 04:34:52;;;;;;;;;;;;;;;5.64;68.72168;101177.1;;;;-82
2022/04/04 04:39:57;;;;;;;;;;;;;;;5.67;68.56152;101166.3;;;;-84
2022/04/04 04:45:01;;;;;;;;;;;;;;;5.66;68.68066;101154;;;;-87
2022/04/04 04:49:54;;;;;;;;;;;;;;;5.64;68.40332;101147;;;;-85
2022/04/04 04:54:49;;;;;;;;;;;;;;;5.64;68.51172;101127.5;;;;-86
2022/04/04 04:55:21;;;;;;;8.6;3;;;;;;;;;;;;;-84
2022/04/04 05:00:02;;;;;;;;;;;;;;;5.62;68.22363;101098.1;;;;-84
2022/04/04 05:05:04;;;;;;;;;;;;;;;5.63;67.77344;101091.6;;;;-86
2022/04/04 05:09:49;;;;;;;;;;;;;;;5.65;68.0957;101075.8;;;;-86
2022/04/04 05:14:52;;;;;;;;;;;;;;;5.65;68.10742;101061.9;;;;-84
2022/04/04 05:20:00;;;;;;;;;;;;;;;5.63;68.77344;101083.9;;;;-85
2022/04/04 05:25:01;;;;;;;;;;;;;;;5.62;69.45313;101061.1;;;;-85
2022/04/04 05:25:26;;;;;;;9.5;3.4;;;;;;;;;;;;;-85
2022/04/04 05:29:49;;;;;;;;;;;;;;;5.58;70.4668;101071.5;;;;-84
2022/04/04 05:34:49;;;;;;;;;;;;;;;5.51;70.43457;101048.3;;;;-84
2022/04/04 05:39:51;;;;;;;;;;;;;;;5.43;70.69531;101043.4;;;;-83
2022/04/04 05:44:52;;;;;;;;;;;;;;;5.36;70.99023;101031.6;;;;-83
2022/04/04 05:49:57;;;;;;;;;;;;;;;5.31;71.39941;101012.7;;;;-84
2022/04/04 05:55:01;;;;;;;;;;;;;;;5.28;71.67871;101004.3;;;;-84
2022/04/04 05:55:21;;;;;;;4.9;2.5;;;;;;;;;;;;;-83
2022/04/04 05:59:56;;;;;;;;;;;;;;;5.28;72.11523;100992.8;;;;-85
2022/04/04 06:04:54;;;;;;;;;;;;;;;5.29;72.2373;101017;;;;-84
2022/04/04 06:09:51;;;;;;;;;;;;;;;5.3;73.21582;101003.5;;;;-84
2022/04/04 06:14:54;;;;;;;;;;;;;;;5.3;73.40137;100994.9;;;;-83
2022/04/04 06:19:51;;;;;;;;;;;;;;;5.3;73.93848;100966.6;;;;-83
2022/04/04 06:24:54;;;;;;;;;;;;;;;5.3;74.32129;100967.8;;;;-85
2022/04/04 06:25:24;;;;;;;8.6;2.9;;;;;;;;;;;;;-84
2022/04/04 06:29:52;;;;;;;;;;;;;;;5.3;74.44141;100960.5;;;;-84
2022/04/04 06:34:50;;;;;;;;;;;;;;;5.28;74.55957;100956.2;;;;-84
2022/04/04 06:39:49;;;;;;;;;;;;;;;5.29;75.45801;100928.3;;;;-83
2022/04/04 06:44:57;;;;;;;;;;;;;;;5.33;76.21973;100918.3;;;;-84
2022/04/04 06:49:52;;;;;;;;;;;;;;;5.36;76.15918;100920.7;;;;-82
2022/04/04 06:54:54;;;;;;;;;;;;;;;5.37;76.31543;100919;;;;-83
2022/04/04 06:55:25;;;;;;;10.6;3.4;;;;;;;;;;;;;-83
2022/04/04 06:59:51;;;;;;;;;;;;;;;5.38;76.86426;100899.4;;;;-80
2022/04/04 07:04:56;;;;;;;;;;;;;;;5.37;77.74902;100920;;;;-82
2022/04/04 07:10:05;;;;;;;;;;;;;;;5.36;78.83008;100901.5;;;;-84
2022/04/04 07:14:55;;;;;;;;;;;;;;;5.34;79.25293;100895.8;;;;-84
2022/04/04 07:20:02;;;;;;;;;;;;;;;5.33;79.49219;100879.8;;;;-85
2022/04/04 07:25:07;;;;;;;;;;;;;;;5.33;79.99316;100867.2;;;;-86
2022/04/04 07:25:22;;;;;;;10.3;3;;;;;;;;;;;;;-84
2022/04/04 07:29:55;;;;;;;;;;;;;;;5.32;79.65332;100860.7;;;;-84
2022/04/04 07:35:08;;;;;;;;;;;;;;;5.33;79.93848;100855;;;;-83
2022/04/04 07:40:00;;;;;;;;;;;;;;;5.34;80.21582;100850.6;;;;-85
2022/04/04 07:50:10;;;;;;;;;;;;;;;5.38;80.20996;100845;;;;-85
2022/04/04 07:55:07;;;;;;;;;;;;;;;5.39;81.2627;100833.6;;;;-81
2022/04/04 07:55:24;;;;;;;7.6;2.9;;;;;;;;;;;;;-84
2022/04/04 08:00:02;;;;;;;;;;;;;;;5.36;81.46484;100822.7;;;;-83
2022/04/04 08:05:00;;;;;;;;;;;;;;;5.35;82.01855;100839.2;;;;-82
2022/04/04 08:09:55;;;;;;;;;;;;;;;5.32;81.30371;100820.7;;;;-81
2022/04/04 08:14:50;;;;;;;;;;;;;;;5.33;82.16797;100813.6;;;;-81
2022/04/04 08:19:50;;;;;;;;;;;;;;;5.32;82.22266;100813.1;;;;-78
2022/04/04 08:24:51;;;;;;;;;;;;;;;5.32;82.47266;100780;;;;-82
2022/04/04 08:25:24;;;;;;;6.8;2.3;;;;;;;;;;;;;-82
2022/04/04 08:29:55;;;;;;;;;;;;;;;5.31;82.35254;100791.7;;;;-85
2022/04/04 08:34:50;;;;;;;;;;;;;;;5.32;82.6377;100796.4;;;;-85
2022/04/04 08:40:01;;;;;;;;;;;;;;;5.32;82.74707;100777.4;;;;-83
2022/04/04 08:44:51;;;;;;;;;;;;;;;5.33;82.43066;100783.5;;;;-83
2022/04/04 08:49:56;;;;;;;;;;;;;;;5.34;82.91406;100766.5;;;;-82
2022/04/04 08:54:49;;;;;;;;;;;;;;;5.37;83.29102;100760.4;;;;-81
2022/04/04 08:55:23;;;;;;;6.4;2.3;;;;;;;;;;;;;-82
2022/04/04 08:59:50;;;;;;;;;;;;;;;5.44;83.53223;100758.1;;;;-82
2022/04/04 09:04:55;;;;;;;;;;;;;;;5.48;83.30078;100748;;;;-84
2022/04/04 09:09:53;;;;;;;;;;;;;;;5.54;83.71582;100736.7;;;;-83
2022/04/04 09:14:51;;;;;;;;;;;;;;;5.6;83.8916;100744.8;;;;-83
2022/04/04 09:19:52;;;;;;;;;;;;;;;5.65;84.17383;100744.8;;;;-82
2022/04/04 09:25:05;;;;;;;;;;;;;;;5.68;84.16992;100728;;;;-82
2022/04/04 09:25:34;;;;;;;5.8;2.4;;;;;;;;;;;;;-82
2022/04/04 09:29:51;;;;;;;;;;;;;;;5.71;84.35059;100718.9;;;;-82
2022/04/04 09:35:01;;;;;;;;;;;;;;;5.73;84.22266;100717.9;;;;-84
2022/04/04 09:39:57;;;;;;;;;;;;;;;5.77;84.37402;100711.3;;;;-83
2022/04/04 09:44:59;;;;;;;;;;;;;;;5.82;84.53516;100683.2;;;;-83
2022/04/04 09:49:52;;;;;;;;;;;;;;;5.86;84.62109;100692.7;;;;-83
2022/04/04 09:54:52;;;;;;;;;;;;;;;5.91;84.84668;100684.9;;;;-82
2022/04/04 09:55:37;;;;;;;7.4;1.9;;;;;;;;;;;;;-83
2022/04/04 10:00:00;;;;;;;;;;;;;;;5.96;84.90332;100685.3;;;;-83
2022/04/04 10:04:54;;;;;;;;;;;;;;;6.01;85.04102;100676;;;;-85
2022/04/04 10:08:29;;;;;;;7.6;1.9;;;;;;;;;;;;;-84
2022/04/04 10:11:08;;;;;;;;;;;;;;;6.08;85.7793;100674.5;;;;-84
2022/04/04 10:16:23;;;;;;;;;;;;;;;6.14;85.6582;100676.5;;;;-80
2022/04/04 10:21:18;;;;;;;;;;;;;;;6.17;85.88281;100655.7;;;;-82
2022/04/04 10:26:15;;;;;;;;;;;;;;;6.22;85.79492;100640.4;;;;-82
2022/04/04 10:31:23;;;;;;;;;;;;;;;6.27;85.88184;100642;;;;-82
2022/04/04 10:36:15;;;;;;;;;;;;;;;6.31;85.83691;100639.5;;;;-82
2022/04/04 10:38:00;;;;;;;4.9;1.2;;;;;;;;;;;;;-81
2022/04/04 10:41:18;;;;;;;;;;;;;;;6.36;85.95508;100627.8;;;;-82
2022/04/04 10:46:17;;;;;;;;;;;;;;;6.4;86.03906;100629.4;;;;-82
2022/04/04 10:51:19;;;;;;;;;;;;;;;6.44;86.05859;100619.3;;;;-82
2022/04/04 10:56:18;;;;;;;;;;;;;;;6.49;86.0791;100614.9;;;;-80
2022/04/04 11:01:19;;;;;;;;;;;;;;;6.55;86.11133;100594.4;;;;-81
2022/04/04 11:08:11;;;;;;;3.4;1.4;;;;;;;;;;;;;-82
2022/04/04 11:11:19;;;;;;;;;;;;;;;6.62;86.26855;100586.2;;;;-80
2022/04/04 11:16:14;;;;;;;;;;;;;;;6.64;86.23926;100594.9;;;;-81
2022/04/04 11:21:32;;;;;;;;;;;;;;;6.67;86.37793;100588.1;;;;-81
2022/04/04 11:26:22;;;;;;;;;;;;;;;6.69;86.4248;100578.3;;;;-83
2022/04/04 11:31:17;;;;;;;;;;;;;;;6.73;86.41016;100576.2;;;;-82
2022/04/04 11:36:24;;;;;;;;;;;;;;;6.75;86.42676;100572.4;;;;-81
2022/04/04 11:37:58;;;;;;;4.3;1.4;;;;;;;;;;;;;-83
2022/04/04 11:41:17;;;;;;;;;;;;;;;6.81;86.7002;100578;;;;-82
2022/04/04 11:46:20;;;;;;;;;;;;;;;6.87;86.52539;100562.4;;;;-81
2022/04/04 11:51:14;;;;;;;;;;;;;;;6.94;86.63965;100568.6;;;;-80
2022/04/04 11:56:20;;;;;;;;;;;;;;;6.98;86.9209;100548.1;;;;-82
2022/04/04 12:01:15;;;;;;;;;;;;;;;7.04;86.71289;100546.3;;;;-82
2022/04/04 12:06:14;;;;;;;;;;;;;;;7.08;86.77637;100549.1;;;;-83
2022/04/04 12:07:58;;;;;;;6;2.5;;;;;;;;;;;;;-81
2022/04/04 12:11:20;;;;;;;;;;;;;;;7.13;86.81836;100540.8;;;;-81
2022/04/04 12:16:23;;;;;;;;;;;;;;;7.17;86.96875;100547.2;;;;-85
2022/04/04 12:21:18;;;;;;;;;;;;;;;7.2;86.91016;100531.5;;;;-82
2022/04/04 12:26:27;;;;;;;;;;;;;;;7.25;87.01758;100535.4;;;;-83
2022/04/04 12:31:28;;;;;;;;;;;;;;;7.28;86.91406;100538.1;;;;-82
2022/04/04 12:36:14;;;;;;;;;;;;;;;7.28;86.82813;100525.5;;;;-81
2022/04/04 12:38:03;;;;;;;7.8;3.2;;;;;;;;;;;;;-82
2022/04/04 12:41:18;;;;;;;;;;;;;;;7.28;87.00098;100523.9;;;;-83
2022/04/04 12:46:26;;;;;;;;;;;;;;;7.28;86.70703;100520.4;;;;-82
2022/04/04 12:51:27;;;;;;;;;;;;;;;7.29;86.74219;100512.9;;;;-83
2022/04/04 12:56:23;;;;;;;;;;;;;;;7.31;86.63379;100504.1;;;;-84
2022/04/04 13:01:25;;;;;;;;;;;;;;;7.35;87.00293;100500.6;;;;-83
2022/04/04 13:06:35;;;;;;;;;;;;;;;7.35;86.46777;100501.5;;;;-81
2022/04/04 13:08:02;;;;;;;15.8;4.1;;;;;;;;;;;;;-82
2022/04/04 13:11:15;;;;;;;;;;;;;;;7.37;86.625;100490.2;;;;-84
2022/04/04 13:16:25;;;;;;;;;;;;;;;7.44;86.94629;100498.3;;;;-84
2022/04/04 13:21:13;;;;;;;;;;;;;;;7.46;86.83984;100496;;;;-86
2022/04/04 13:26:13;;;;;;;;;;;;;;;7.47;86.8418;100497.1;;;;-77
2022/04/04 13:31:13;;;;;;;;;;;;;;;7.48;87.22949;100482;;;;-78
2022/04/04 13:36:14;;;;;;;;;;;;;;;7.53;87.5127;100503.6;;;;-77
2022/04/04 13:38:02;;;;;;;12;4.2;;;;;;;;;;;;;-78
2022/04/04 13:41:18;;;;;;;;;;;;;;;7.55;87.25293;100487.1;;;;-79
2022/04/04 13:46:14;;;;;;;;;;;;;;;7.57;87.34473;100483.5;;;;-78
2022/04/04 13:51:18;;;;;;;;;;;;;;;7.59;87.66797;100476.6;;;;-84
2022/04/04 13:56:13;;;;;;;;;;;;;;;7.66;87.79199;100481;;;;-78
2022/04/04 14:01:14;;;;;;;;;;;;;;;7.71;87.57129;100488.9;;;;-80
2022/04/04 14:06:13;;;;;;;;;;;;;;;7.79;88.31152;100477.2;;;;-78
2022/04/04 14:07:59;;;;;;;12;4.8;;;;;;;;;;;;;-79
2022/04/04 14:11:15;;;;;;;;;;;;;;;7.86;87.89648;100466.8;;;;-77
2022/04/04 14:16:14;;;;;;;;;;;;;;;7.92;87.74316;100477.6;;;;-79
2022/04/04 14:21:14;;;;;;;;;;;;;;;7.98;88.2832;100470.2;;;;-78
2022/04/04 14:26:14;;;;;;;;;;;;;;;8;87.73926;100463.9;;;;-78
2022/04/04 14:31:14;;;;;;;;;;;;;;;8.04;87.87891;100472.2;;;;-78
2022/04/04 14:36:13;;;;;;;;;;;;;;;8.1;88.30664;100475.3;;;;-78
2022/04/04 14:38:00;;;;;;;16.9;5.8;;;;;;;;;;;;;-79
2022/04/04 14:41:13;;;;;;;;;;;;;;;8.15;88.40527;100462.1;;;;-79
2022/04/04 14:46:14;;;;;;;;;;;;;;;8.23;88.33398;100464.8;;;;-78
2022/04/04 14:51:13;;;;;;;;;;;;;;;8.26;88.04492;100456.5;;;;-78
2022/04/04 14:56:14;;;;;;;;;;;;;;;8.3;87.64453;100467.9;;;;-79
2022/04/04 15:01:14;;;;;;;;;;;;;;;8.36;87.9209;100449.7;;;;-77
2022/04/04 15:06:13;;;;;;;;;;;;;;;8.43;88.45215;100453.8;;;;-78
2022/04/04 15:08:01;;;;;;;14.2;5.9;;;;;;;;;;;;;-80
2022/04/04 15:11:13;;;;;;;;;;;;;;;8.46;87.99609;100460.4;;;;-79
2022/04/04 15:16:13;;;;;;;;;;;;;;;8.48;88.17578;100456.5;;;;-79
2022/04/04 15:21:13;;;;;;;;;;;;;;;8.53;87.97754;100463.8;;;;-78
2022/04/04 15:26:14;;;;;;;;;;;;;;;8.56;88.10449;100466;;;;-79
2022/04/04 15:31:13;;;;;;;;;;;;;;;8.58;88.03125;100472.4;;;;-78
2022/04/04 15:36:22;;;;;;;;;;;;;;;8.61;87.7832;100464.8;;;;-78
2022/04/04 15:38:01;;;;;;;13.5;6.2;;;;;;;;;;;;;-77
2022/04/04 15:41:13;;;;;;;;;;;;;;;8.61;87.66504;100468.5;;;;-78
2022/04/04 15:46:16;;;;;;;;;;;;;;;8.63;87.65723;100475;;;;-78
2022/04/04 15:51:13;;;;;;;;;;;;;;;8.65;87.97949;100473.5;;;;-78
2022/04/04 15:56:13;;;;;;;;;;;;;;;8.67;88.04883;100472;;;;-78
2022/04/04 16:01:14;;;;;;;;;;;;;;;8.69;88.05273;100474.5;;;;-77
2022/04/04 16:06:14;;;;;;;;;;;;;;;8.71;87.80566;100481.5;;;;-79
2022/04/04 16:08:02;;;;;;;12.7;4.6;;;;;;;;;;;;;-79
2022/04/04 16:11:16;;;;;;;;;;;;;;;8.72;88.43457;100471.1;;;;-78
2022/04/04 16:16:14;;;;;;;;;;;;;;;8.74;87.67969;100472.9;;;;-78
2022/04/04 16:21:14;;;;;;;;;;;;;;;8.74;87.27246;100479;;;;-79
2022/04/04 16:26:13;;;;;;;;;;;;;;;8.75;87.3623;100476.7;;;;-80
2022/04/04 16:31:14;;;;;;;;;;;;;;;8.74;87.44824;100473.3;;;;-78
2022/04/04 16:36:13;;;;;;;;;;;;;;;8.74;87.65723;100472.5;;;;-78
2022/04/04 16:38:03;;;;;;;14.2;4.5;;;;;;;;;;;;;-79
2022/04/04 16:41:14;;;;;;;;;;;;;;;8.74;87.30566;100466.6;;;;-78
2022/04/04 16:46:16;;;;;;;;;;;;;;;8.75;87.6377;100464.7;;;;-77
2022/04/04 16:51:13;;;;;;;;;;;;;;;8.74;87.23926;100470.2;;;;-79
2022/04/04 16:56:13;;;;;;;;;;;;;;;8.73;87.57715;100471.7;;;;-78
2022/04/04 17:01:13;;;;;;;;;;;;;;;8.72;86.9375;100468.8;;;;-77
2022/04/04 17:06:15;;;;;;;;;;;;;;;8.7;87.10938;100475.3;;;;-79
2022/04/04 17:08:03;;;;;;;14.5;5.7;;;;;;;;;;;;;-79
2022/04/04 17:11:14;;;;;;;;;;;;;;;8.68;87.47949;100468.7;;;;-78
2022/04/04 17:16:13;;;;;;;;;;;;;;;8.65;87.59473;100465.9;;;;-79
2022/04/04 17:21:14;;;;;;;;;;;;;;;8.64;87.46094;100459.4;;;;-78
2022/04/04 17:26:13;;;;;;;;;;;;;;;8.63;87.21777;100466;;;;-80
2022/04/04 17:31:13;;;;;;;;;;;;;;;8.63;86.93164;100461.8;;;;-78
2022/04/04 17:36:14;;;;;;;;;;;;;;;8.63;87.2959;100462.2;;;;-79
2022/04/04 17:38:04;;;;;;;11.3;4.9;;;;;;;;;;;;;-79
2022/04/04 17:41:17;;;;;;;;;;;;;;;8.63;87.23828;100448.2;;;;-79
2022/04/04 17:46:14;;;;;;;;;;;;;;;8.63;87.06152;100449.4;;;;-79
2022/04/04 17:51:15;;;;;;;;;;;;;;;8.61;87.36816;100443.6;;;;-79
2022/04/04 17:56:13;;;;;;;;;;;;;;;8.59;86.85645;100438.6;;;;-78
2022/04/04 18:01:20;;;;;;;;;;;;;;;8.59;86.95801;100441.2;;;;-79
2022/04/04 18:06:15;;;;;;;;;;;;;;;8.59;87.38477;100435.8;;;;-80
2022/04/04 18:08:10;;;;;;;15.4;5.8;;;;;;;;;;;;;-80
2022/04/04 18:11:15;;;;;;;;;;;;;;;8.6;87.44336;100443.1;;;;-80
2022/04/04 18:16:13;;;;;;;;;;;;;;;8.61;88.13574;100450.1;;;;-79
2022/04/04 18:21:13;;;;;;;;;;;;;;;8.61;87.37695;100456.9;;;;-79
2022/04/04 18:26:13;;;;;;;;;;;;;;;8.62;87.37012;100471.9;;;;-79
2022/04/04 18:31:14;;;;;;;;;;;;;;;8.65;88.33105;100466.6;;;;-82
2022/04/04 18:36:14;;;;;;;;;;;;;;;8.65;88.04785;100468.6;;;;-82
2022/04/04 18:38:06;;;;;;;12.4;4.4;;;;;;;;;;;;;-82
2022/04/04 18:41:14;;;;;;;;;;;;;;;8.66;88.43164;100475.7;;;;-81
2022/04/04 18:46:14;;;;;;;;;;;;;;;8.65;88.15527;100465.6;;;;-81
2022/04/04 18:51:14;;;;;;;;;;;;;;;8.65;88.60645;100467.8;;;;-80
2022/04/04 18:56:17;;;;;;;;;;;;;;;8.66;88.77246;100470.7;;;;-80
2022/04/04 19:01:17;;;;;;;;;;;;;;;8.65;88.75781;100469.8;;;;-81
2022/04/04 19:06:14;;;;;;;;;;;;;;;8.63;88.4834;100468.3;;;;-81
2022/04/04 19:08:14;;;;;;;11.6;4.5;;;;;;;;;;;;;-81
2022/04/04 19:11:14;;;;;;;;;;;;;;;8.62;88.20508;100462.8;;;;-80
2022/04/04 19:16:13;;;;;;;;;;;;;;;8.62;88.97363;100464;;;;-81
2022/04/04 19:21:16;;;;;;;;;;;;;;;8.61;88.17969;100468.1;;;;-81
2022/04/04 19:26:17;;;;;;;;;;;;;;;8.61;88.41016;100465;;;;-82
2022/04/04 19:31:15;;;;;;;;;;;;;;;8.6;88.56348;100466.1;;;;-81
2022/04/04 19:36:18;;;;;;;;;;;;;;;8.59;88.3291;100465.4;;;;-79
2022/04/04 19:38:10;;;;;;;13.1;5;;;;;;;;;;;;;-82
2022/04/04 19:41:14;;;;;;;;;;;;;;;8.58;88.51465;100464;;;;-80
2022/04/04 19:46:14;;;;;;;;;;;;;;;8.56;88.21387;100463.9;;;;-82
2022/04/04 19:51:17;;;;;;;;;;;;;;;8.56;88.88379;100467.5;;;;-81
2022/04/04 19:56:14;;;;;;;;;;;;;;;8.53;88.13184;100465.7;;;;-82
2022/04/04 20:01:14;;;;;;;;;;;;;;;8.52;88.4043;100462.9;;;;-82
2022/04/04 20:06:15;;;;;;;;;;;;;;;8.5;88.08203;100468.5;;;;-81
2022/04/04 20:08:09;;;;;;;11.3;4.7;;;;;;;;;;;;;-81
2022/04/04 20:11:14;;;;;;;;;;;;;;;8.5;88.24707;100468.7;;;;-81
2022/04/04 20:16:17;;;;;;;;;;;;;;;8.49;87.96875;100470.9;;;;-81
2022/04/04 20:21:15;;;;;;;;;;;;;;;8.49;88.35352;100462.9;;;;-79
2022/04/04 20:26:15;;;;;;;;;;;;;;;8.47;87.75391;100458.3;;;;-81
2022/04/04 20:31:17;;;;;;;;;;;;;;;8.47;87.9541;100462.7;;;;-82
2022/04/04 20:36:14;;;;;;;;;;;;;;;8.46;87.84277;100460.2;;;;-81
2022/04/04 20:38:10;;;;;;;18;5.4;;;;;;;;;;;;;-82
2022/04/04 20:41:15;;;;;;;;;;;;;;;8.46;87.75391;100462.9;;;;-81
2022/04/04 20:46:15;;;;;;;;;;;;;;;8.44;87.32227;100464.6;;;;-82
2022/04/04 20:51:14;;;;;;;;;;;;;;;8.42;86.76758;100468.8;;;;-81
2022/04/04 20:56:13;;;;;;;;;;;;;;;8.41;86.38281;100464.8;;;;-82
2022/04/04 21:01:14;;;;;;;;;;;;;;;8.41;86.72363;100459.3;;;;-82
2022/04/04 21:06:15;;;;;;;;;;;;;;;8.4;86.78711;100463;;;;-80
2022/04/04 21:08:18;;;;;;;13.1;4.6;;;;;;;;;;;;;-82
2022/04/04 21:11:17;;;;;;;;;;;;;;;8.4;86.77441;100463.2;;;;-82
2022/04/04 21:16:18;;;;;;;;;;;;;;;8.4;86.85352;100472.1;;;;-81
2022/04/04 21:21:14;;;;;;;;;;;;;;;8.4;86.34668;100476.6;;;;-81
2022/04/04 21:26:15;;;;;;;;;;;;;;;8.4;86.28223;100479.5;;;;-80
2022/04/04 21:31:15;;;;;;;;;;;;;;;8.4;85.92871;100490.2;;;;-81
2022/04/04 21:36:19;;;;;;;;;;;;;;;8.37;86.69434;100496.4;;;;-81
2022/04/04 21:38:15;;;;;;;9.6;3.5;;;;;;;;;;;;;-81
2022/04/04 21:41:20;;;;;;;;;;;;;;;8.3;86.2627;100494.7;;;;-82
2022/04/04 21:46:18;;;;;;;;;;;;;;;8.24;85.78809;100499.4;;;;-82
2022/04/04 21:51:14;;;;;;;;;;;;;;;8.19;84.68945;100507.8;;;;-82
2022/04/04 21:56:15;;;;;;;;;;;;;;;8.13;84.85547;100506.1;;;;-81
2022/04/04 22:01:18;;;;;;;;;;;;;;;8.08;84.16309;100505.7;;;;-81
2022/04/04 22:06:17;;;;;;;;;;;;;;;8.03;83.93652;100513.1;;;;-81
2022/04/04 22:08:13;;;;;;;5.5;2.4;;;;;;;;;;;;;-82
2022/04/04 22:11:16;;;;;;;;;;;;;;;8;83.18066;100523.4;;;;-82
2022/04/04 22:16:14;;;;;;;;;;;;;;;7.95;83.50098;100524.7;;;;-83
2022/04/04 22:21:14;;;;;;;;;;;;;;;7.91;83.50488;100524.2;;;;-82
2022/04/04 22:26:14;;;;;;;;;;;;;;;7.86;83.47266;100533.4;;;;-82
2022/04/04 22:31:14;;;;;;;;;;;;;;;7.81;83.2666;100527.9;;;;-82
2022/04/04 22:36:20;;;;;;;;;;;;;;;7.77;83.10449;100527.6;;;;-83
2022/04/04 22:38:14;;;;;;;4.8;1.7;;;;;;;;;;;;;-82
2022/04/04 22:41:17;;;;;;;;;;;;;;;7.73;82.9873;100525.2;;;;-82
2022/04/04 22:46:14;;;;;;;;;;;;;;;7.69;82.95801;100530.9;;;;-81
2022/04/04 22:51:19;;;;;;;;;;;;;;;7.65;82.83984;100534.9;;;;-81
2022/04/04 22:56:14;;;;;;;;;;;;;;;7.61;82.51465;100552.2;;;;-80
2022/04/04 23:01:14;;;;;;;;;;;;;;;7.57;82.21973;100560.4;;;;-80
2022/04/04 23:06:14;;;;;;;;;;;;;;;7.53;82.19141;100561.9;;;;-82
2022/04/04 23:08:15;;;;;;;3;1;;;;;;;;;;;;;-81
2022/04/04 23:11:14;;;;;;;;;;;;;;;7.5;82.00879;100564;;;;-80
2022/04/04 23:16:13;;;;;;;;;;;;;;;7.46;81.98145;100560.6;;;;-80
2022/04/04 23:21:14;;;;;;;;;;;;;;;7.42;81.94043;100565.8;;;;-81
2022/04/04 23:26:17;;;;;;;;;;;;;;;7.4;81.83594;100563;;;;-81
2022/04/04 23:31:17;;;;;;;;;;;;;;;7.37;81.82031;100565;;;;-82
2022/04/04 23:36:14;;;;;;;;;;;;;;;7.34;81.70508;100572.4;;;;-82
2022/04/04 23:38:15;;;;;;;1.7;0.7;;;;;;;;;;;;;-83
2022/04/04 23:41:14;;;;;;;;;;;;;;;7.31;81.76758;100574.7;;;;-82
2022/04/04 23:46:14;;;;;;;;;;;;;;;7.29;81.85059;100575.1;;;;-82
2022/04/04 23:51:14;;;;;;;;;;;;;;;7.27;81.94434;100570.2;;;;-81
2022/04/04 23:56:15;;;;;;;;;;;;;;;7.24;81.96094;100578.4;;;;-82
